createdAt,value
2019-01-11T00:01:21.831Z,1.40
2019-01-11T00:03:52.224Z,1.40
2019-01-11T00:06:22.968Z,1.30
2019-01-11T00:08:53.912Z,1.30
2019-01-11T00:11:24.540Z,1.30
2019-01-11T00:13:54.974Z,1.30
2019-01-11T00:16:26.199Z,1.30
2019-01-11T00:18:57.079Z,1.20
2019-01-11T00:21:27.822Z,1.20
2019-01-11T00:23:58.568Z,1.30
2019-01-11T00:26:29.291Z,1.40
2019-01-11T00:29:01.480Z,1.40
2019-01-11T00:31:32.496Z,1.30
2019-01-11T00:34:05.259Z,1.30
2019-01-11T00:36:36.258Z,1.40
2019-01-11T00:39:09.252Z,1.40
2019-01-11T00:41:39.969Z,1.30
2019-01-11T00:44:11.112Z,1.30
2019-01-11T00:46:42.696Z,1.40
2019-01-11T00:49:14.687Z,1.30
2019-01-11T00:51:45.498Z,1.20
2019-01-11T00:54:16.457Z,1.30
2019-01-11T00:56:47.569Z,1.30
2019-01-11T00:59:18.454Z,1.40
2019-01-11T01:01:48.945Z,1.40
2019-01-11T01:04:19.581Z,1.40
2019-01-11T01:06:50.003Z,1.40
2019-01-11T01:09:20.781Z,1.40
2019-01-11T01:11:51.947Z,1.40
2019-01-11T01:14:22.542Z,1.40
2019-01-11T01:16:54.373Z,1.50
2019-01-11T01:19:25.004Z,1.40
2019-01-11T01:21:55.652Z,1.30
2019-01-11T01:24:26.099Z,1.30
2019-01-11T01:26:57.543Z,1.20
2019-01-11T01:29:28.384Z,1.30
2019-01-11T01:31:58.750Z,1.30
2019-01-11T01:34:29.314Z,1.40
2019-01-11T01:37:03.501Z,1.50
2019-01-11T01:39:34.537Z,1.50
2019-01-11T01:42:05.136Z,1.50
2019-01-11T01:44:36.596Z,1.50
2019-01-11T01:47:07.274Z,1.60
2019-01-11T01:49:37.823Z,1.60
2019-01-11T01:52:08.697Z,1.60
2019-01-11T01:54:39.248Z,1.50
2019-01-11T01:57:10.056Z,1.50
2019-01-11T01:59:40.603Z,1.50
2019-01-11T02:02:12.933Z,1.50
2019-01-11T02:04:43.652Z,1.50
2019-01-11T02:07:14.254Z,1.50
2019-01-11T02:09:44.805Z,1.60
2019-01-11T02:12:15.484Z,1.60
2019-01-11T02:14:49.820Z,1.50
2019-01-11T02:17:20.392Z,1.50
2019-01-11T02:19:51.398Z,1.40
2019-01-11T02:22:22.663Z,1.50
2019-01-11T02:24:54.131Z,1.40
2019-01-11T02:27:24.711Z,1.40
2019-01-11T02:29:56.028Z,1.50
2019-01-11T02:32:27.188Z,1.40
2019-01-11T02:34:57.729Z,1.50
2019-01-11T02:37:28.428Z,1.50
2019-01-11T02:39:59.133Z,1.50
2019-01-11T02:42:29.815Z,1.50
2019-01-11T02:45:00.570Z,1.50
2019-01-11T02:47:30.924Z,1.40
2019-01-11T02:50:01.292Z,1.30
2019-01-11T02:52:32.172Z,1.40
2019-01-11T02:55:04.071Z,1.40
2019-01-11T02:57:37.487Z,1.20
2019-01-11T03:00:15.137Z,1.30
2019-01-11T03:02:46.835Z,1.20
2019-01-11T03:05:18.162Z,1.20
2019-01-11T03:07:49.545Z,1.10
2019-01-11T03:10:25.016Z,1.10
2019-01-11T03:12:55.678Z,1.20
2019-01-11T03:15:26.239Z,1.20
2019-01-11T03:17:56.795Z,1.10
2019-01-11T03:20:27.049Z,1.10
2019-01-11T03:22:57.739Z,1.00
2019-01-11T03:25:28.550Z,1.00
2019-01-11T03:27:59.487Z,1.00
2019-01-11T03:30:29.869Z,1.00
2019-01-11T03:33:00.580Z,1.00
2019-01-11T03:35:33.894Z,1.00
2019-01-11T03:38:05.770Z,0.90
2019-01-11T03:40:37.248Z,0.80
2019-01-11T03:43:07.712Z,0.80
2019-01-11T03:45:38.980Z,0.80
2019-01-11T03:48:09.656Z,0.80
2019-01-11T03:50:43.355Z,0.70
2019-01-11T03:53:14.046Z,0.70
2019-01-11T03:55:44.747Z,0.70
2019-01-11T03:58:15.348Z,0.60
2019-01-11T04:00:46.286Z,0.60
2019-01-11T04:03:18.584Z,0.70
2019-01-11T04:05:49.935Z,0.70
2019-01-11T04:08:20.533Z,0.70
2019-01-11T04:10:52.009Z,0.70
2019-01-11T04:13:30.441Z,0.60
2019-01-11T04:15:57.619Z,0.60
2019-01-11T04:18:36.625Z,0.70
2019-01-11T04:21:09.325Z,0.60
2019-01-11T04:23:39.720Z,0.60
2019-01-11T04:26:10.323Z,0.50
2019-01-11T04:28:42.605Z,0.40
2019-01-11T04:31:13.500Z,0.40
2019-01-11T04:33:45.386Z,0.50
2019-01-11T04:36:16.592Z,0.50
2019-01-11T04:38:47.178Z,0.50
2019-01-11T04:41:18.153Z,0.40
2019-01-11T04:43:48.627Z,0.40
2019-01-11T04:46:19.392Z,0.30
2019-01-11T04:48:50.027Z,0.50
2019-01-11T04:51:20.624Z,0.40
2019-01-11T04:53:53.444Z,0.50
2019-01-11T04:56:24.998Z,0.60
2019-01-11T04:58:58.629Z,0.40
2019-01-11T05:01:29.211Z,0.30
2019-01-11T05:04:00.015Z,0.30
2019-01-11T05:06:30.663Z,0.30
2019-01-11T05:09:02.070Z,0.40
2019-01-11T05:11:32.931Z,0.30
2019-01-11T05:14:03.645Z,0.30
2019-01-11T05:16:39.459Z,0.30
2019-01-11T05:19:07.206Z,0.20
2019-01-11T05:21:38.272Z,0.20
2019-01-11T05:24:08.773Z,0.40
2019-01-11T05:26:39.763Z,0.30
2019-01-11T05:29:10.503Z,0.20
2019-01-11T05:31:41.174Z,0.20
2019-01-11T05:34:11.891Z,0.10
2019-01-11T05:36:42.358Z,0.20
2019-01-11T05:39:13.192Z,0.20
2019-01-11T05:41:43.793Z,0.10
2019-01-11T05:44:15.831Z,0.20
2019-01-11T05:46:46.833Z,0.10
2019-01-11T05:49:17.227Z,0.10
2019-01-11T05:51:48.310Z,0.10
2019-01-11T05:54:20.085Z,0.10
2019-01-11T05:56:50.676Z,0.00
2019-01-11T05:59:21.817Z,-0.20
2019-01-11T06:01:52.038Z,-0.20
2019-01-11T06:04:57.784Z,-0.20
2019-01-11T06:07:47.440Z,-0.20
2019-01-11T06:10:18.636Z,-0.30
2019-01-11T06:12:49.738Z,-0.40
2019-01-11T06:15:20.678Z,-0.50
2019-01-11T06:17:51.496Z,-0.50
2019-01-11T06:20:23.159Z,-0.50
2019-01-11T06:22:53.594Z,-0.60
2019-01-11T06:25:24.180Z,-0.60
2019-01-11T06:27:55.603Z,-0.90
2019-01-11T06:30:27.318Z,-0.90
2019-01-11T06:32:57.700Z,-0.90
2019-01-11T06:35:28.193Z,-1.10
2019-01-11T06:37:58.750Z,-1.10
2019-01-11T06:40:29.515Z,-1.20
2019-01-11T06:43:03.587Z,-1.20
2019-01-11T06:45:33.210Z,-1.30
2019-01-11T06:48:05.137Z,-1.20
2019-01-11T06:50:38.589Z,-1.30
2019-01-11T06:53:09.509Z,-1.40
2019-01-11T06:55:40.403Z,-1.40
2019-01-11T06:58:11.231Z,-1.40
2019-01-11T07:00:42.563Z,-1.50
2019-01-11T07:03:13.110Z,-1.50
2019-01-11T07:05:47.787Z,-1.60
2019-01-11T07:08:20.355Z,-1.60
2019-01-11T07:10:53.049Z,-1.60
2019-01-11T07:13:24.909Z,-1.40
2019-01-11T07:15:55.235Z,-1.40
2019-01-11T07:18:26.641Z,-1.40
2019-01-11T07:20:57.967Z,-1.40
2019-01-11T07:23:28.797Z,-1.20
2019-01-11T07:25:59.505Z,-1.20
2019-01-11T07:28:31.801Z,-1.20
2019-01-11T07:31:11.866Z,-1.20
2019-01-11T07:33:42.875Z,-1.30
2019-01-11T07:36:37.690Z,-1.30
2019-01-11T07:39:22.566Z,-1.40
2019-01-11T07:41:56.620Z,-1.50
2019-01-11T07:44:28.044Z,-1.60
2019-01-11T07:46:59.032Z,-1.60
2019-01-11T07:49:29.852Z,-1.60
2019-01-11T07:52:00.782Z,-1.60
2019-01-11T07:54:32.005Z,-1.60
2019-01-11T07:57:02.520Z,-1.60
2019-01-11T07:59:33.597Z,-1.60
2019-01-11T08:02:04.609Z,-1.50
2019-01-11T08:04:35.604Z,-1.50
2019-01-11T08:07:07.024Z,-1.40
2019-01-11T08:09:38.004Z,-1.30
2019-01-11T08:12:08.723Z,-1.10
2019-01-11T08:14:40.343Z,-0.80
2019-01-11T08:17:11.173Z,-0.50
2019-01-11T08:19:42.295Z,-0.20
2019-01-11T08:22:24.674Z,0.10
2019-01-11T08:25:02.884Z,0.40
2019-01-11T08:27:34.130Z,0.60
2019-01-11T08:30:09.098Z,1.00
2019-01-11T08:32:40.208Z,1.40
2019-01-11T08:35:12.427Z,1.70
2019-01-11T08:37:43.221Z,2.30
2019-01-11T08:40:14.859Z,3.10
2019-01-11T08:42:45.881Z,3.80
2019-01-11T08:45:16.512Z,4.30
2019-01-11T08:47:47.737Z,4.70
2019-01-11T08:50:19.849Z,5.30
2019-01-11T08:52:50.305Z,5.50
2019-01-11T08:55:21.195Z,5.80
2019-01-11T08:57:52.043Z,6.10
2019-01-11T09:00:22.555Z,6.10
2019-01-11T09:02:54.638Z,6.40
2019-01-11T09:05:25.061Z,6.30
2019-01-11T09:07:55.764Z,5.90
2019-01-11T09:10:26.968Z,6.10
2019-01-11T09:12:58.414Z,5.90
2019-01-11T09:15:30.461Z,6.20
2019-01-11T09:18:05.502Z,6.30
2019-01-11T09:20:36.010Z,6.40
2019-01-11T09:23:26.129Z,6.10
2019-01-11T09:25:56.622Z,5.70
2019-01-11T09:28:27.741Z,6.00
2019-01-11T09:30:59.102Z,6.50
2019-01-11T09:33:29.737Z,7.20
2019-01-11T09:36:00.727Z,8.20
2019-01-11T09:38:31.253Z,8.50
2019-01-11T09:41:02.640Z,8.70
2019-01-11T09:43:33.400Z,9.10
2019-01-11T09:46:05.605Z,9.00
2019-01-11T09:48:36.090Z,9.50
2019-01-11T09:51:07.473Z,9.50
2019-01-11T09:53:38.697Z,10.10
2019-01-11T09:56:09.105Z,9.70
2019-01-11T09:58:39.575Z,10.30
2019-01-11T10:01:10.083Z,10.90
2019-01-11T10:03:40.761Z,11.60
2019-01-11T10:06:11.522Z,12.20
2019-01-11T10:08:45.276Z,12.80
2019-01-11T10:11:15.811Z,13.00
2019-01-11T10:13:47.966Z,12.10
2019-01-11T10:16:19.115Z,11.80
2019-01-11T10:18:49.571Z,11.20
2019-01-11T10:21:22.479Z,10.40
2019-01-11T10:23:52.474Z,9.40
2019-01-11T10:26:26.066Z,8.40
2019-01-11T10:28:56.450Z,7.60
2019-01-11T10:31:27.939Z,7.10
2019-01-11T10:33:58.981Z,6.90
2019-01-11T10:36:32.605Z,6.70
2019-01-11T10:39:03.184Z,6.70
2019-01-11T10:41:34.240Z,7.70
2019-01-11T10:44:06.464Z,8.30
2019-01-11T10:46:38.027Z,8.60
2019-01-11T10:49:08.917Z,9.40
2019-01-11T10:51:40.906Z,10.70
2019-01-11T10:54:21.400Z,10.60
2019-01-11T10:56:53.302Z,10.40
2019-01-11T10:59:23.788Z,10.10
2019-01-11T11:01:54.709Z,8.80
2019-01-11T11:04:25.734Z,7.90
2019-01-11T11:06:56.784Z,7.30
2019-01-11T11:09:28.155Z,7.30
2019-01-11T11:11:58.902Z,6.90
2019-01-11T11:14:30.248Z,6.20
2019-01-11T11:17:00.582Z,6.10
2019-01-11T11:19:30.990Z,6.30
2019-01-11T11:22:01.461Z,5.40
2019-01-11T11:24:32.258Z,5.20
2019-01-11T11:27:04.171Z,5.00
2019-01-11T11:29:34.526Z,5.20
2019-01-11T11:32:05.508Z,4.90
2019-01-11T11:34:37.923Z,4.90
2019-01-11T11:37:10.934Z,5.10
2019-01-11T11:39:41.596Z,5.40
2019-01-11T11:42:16.915Z,6.20
2019-01-11T11:44:47.547Z,7.20
2019-01-11T11:47:19.794Z,7.20
2019-01-11T11:49:50.223Z,6.40
2019-01-11T11:52:20.673Z,5.50
2019-01-11T11:54:51.961Z,5.10
2019-01-11T11:57:22.919Z,4.60
2019-01-11T11:59:56.537Z,4.10
2019-01-11T12:02:27.339Z,3.80
2019-01-11T12:04:58.963Z,3.60
2019-01-11T12:07:43.820Z,3.00
2019-01-11T12:10:20.437Z,2.40
2019-01-11T12:12:52.132Z,2.30
2019-01-11T12:15:22.694Z,2.20
2019-01-11T12:17:53.416Z,2.40
2019-01-11T12:20:33.977Z,2.40
2019-01-11T12:23:06.391Z,2.50
2019-01-11T12:25:37.252Z,2.30
2019-01-11T12:28:07.856Z,2.20
2019-01-11T12:30:39.017Z,2.20
2019-01-11T12:33:09.560Z,1.90
2019-01-11T12:35:40.298Z,2.10
2019-01-11T12:38:13.774Z,2.30
2019-01-11T12:40:44.544Z,2.30
2019-01-11T12:43:15.350Z,2.40
2019-01-11T12:45:47.274Z,2.60
2019-01-11T12:48:17.736Z,2.70
2019-01-11T12:50:48.786Z,2.90
2019-01-11T12:53:19.484Z,3.10
2019-01-11T12:55:49.942Z,3.00
2019-01-11T12:58:21.022Z,3.00
2019-01-11T13:00:52.470Z,2.90
2019-01-11T13:03:22.937Z,2.70
2019-01-11T13:05:54.224Z,2.40
2019-01-11T13:08:25.421Z,2.10
2019-01-11T13:10:56.585Z,1.80
2019-01-11T13:13:27.416Z,1.60
2019-01-11T13:15:58.583Z,1.80
2019-01-11T13:18:30.910Z,1.60
2019-01-11T13:21:01.675Z,1.60
2019-01-11T13:23:33.479Z,1.50
2019-01-11T13:26:04.931Z,1.50
2019-01-11T13:28:35.832Z,1.50
2019-01-11T13:31:06.142Z,1.70
2019-01-11T13:33:36.537Z,1.80
2019-01-11T13:36:13.328Z,1.80
2019-01-11T13:38:43.678Z,1.70
2019-01-11T13:41:14.883Z,2.00
2019-01-11T13:43:46.376Z,1.90
2019-01-11T13:46:16.809Z,1.90
2019-01-11T13:48:47.476Z,1.70
2019-01-11T13:51:18.056Z,1.50
2019-01-11T13:53:48.560Z,1.40
2019-01-11T13:56:20.308Z,1.50
2019-01-11T13:58:52.012Z,1.40
2019-01-11T14:01:22.968Z,1.40
2019-01-11T14:03:53.863Z,1.40
2019-01-11T14:06:24.155Z,1.50
2019-01-11T14:08:54.835Z,1.50
2019-01-11T14:11:26.109Z,1.60
2019-01-11T14:13:57.214Z,1.70
2019-01-11T14:16:27.662Z,1.40
2019-01-11T14:18:58.511Z,1.30
2019-01-11T14:21:29.440Z,1.40
2019-01-11T14:23:59.741Z,1.20
2019-01-11T14:26:30.582Z,1.00
2019-01-11T14:29:01.514Z,1.10
2019-01-11T14:31:33.206Z,0.90
2019-01-11T14:34:03.908Z,0.80
2019-01-11T14:36:34.327Z,0.90
2019-01-11T14:39:07.107Z,0.90
2019-01-11T14:41:38.255Z,0.60
2019-01-11T14:44:08.875Z,0.50
2019-01-11T14:46:40.456Z,0.40
2019-01-11T14:49:10.945Z,0.30
2019-01-11T14:51:41.398Z,0.30
2019-01-11T14:54:12.867Z,0.30
2019-01-11T14:56:43.657Z,0.30
2019-01-11T14:59:14.164Z,0.30
2019-01-11T15:01:44.882Z,0.20
2019-01-11T15:04:16.448Z,0.10
2019-01-11T15:06:47.018Z,0.20
2019-01-11T15:09:18.060Z,0.10
2019-01-11T15:11:49.437Z,0.10
2019-01-11T15:14:20.774Z,-0.10
2019-01-11T15:16:51.533Z,-0.10
2019-01-11T15:19:22.740Z,-0.20
2019-01-11T15:21:54.471Z,-0.10
2019-01-11T15:24:25.416Z,-0.10
2019-01-11T15:26:56.261Z,-0.20
2019-01-11T15:29:26.644Z,-0.10
2019-01-11T15:31:57.358Z,-0.20
2019-01-11T15:34:28.781Z,-0.30
2019-01-11T15:37:00.305Z,-0.30
2019-01-11T15:39:32.595Z,-0.40
2019-01-11T15:42:03.585Z,-0.40
2019-01-11T15:44:35.381Z,-0.40
2019-01-11T15:47:07.299Z,-0.40
2019-01-11T15:49:38.331Z,-0.50
2019-01-11T15:52:08.715Z,-0.50
2019-01-11T15:54:40.375Z,-0.50
2019-01-11T15:57:10.859Z,-0.60
2019-01-11T16:00:01.192Z,-0.60
2019-01-11T16:02:33.489Z,-0.60
2019-01-11T16:05:04.457Z,-0.70
2019-01-11T16:07:35.035Z,-0.70
2019-01-11T16:10:12.675Z,-0.70
2019-01-11T16:12:50.061Z,-0.70
2019-01-11T16:15:54.585Z,-0.60
2019-01-11T16:18:29.825Z,-0.60
2019-01-11T16:21:00.376Z,-0.60
2019-01-11T16:23:30.893Z,-0.70
2019-01-11T16:26:01.740Z,-0.60
2019-01-11T16:28:32.667Z,-0.50
2019-01-11T16:31:07.285Z,-0.60
2019-01-11T16:33:46.791Z,-0.60
2019-01-11T16:36:19.182Z,-0.60
2019-01-11T16:38:49.737Z,-0.60
2019-01-11T16:41:21.841Z,-0.60
2019-01-11T16:43:53.390Z,-0.60
2019-01-11T16:46:24.710Z,-0.50
2019-01-11T16:48:56.457Z,-0.50
2019-01-11T16:51:27.381Z,-0.50
2019-01-11T16:53:57.848Z,-0.60
2019-01-11T16:56:29.011Z,-0.50
2019-01-11T16:59:01.274Z,-0.60
2019-01-11T17:01:33.909Z,-0.60
2019-01-11T17:04:05.792Z,-0.60
2019-01-11T17:06:37.027Z,-0.60
2019-01-11T17:09:10.075Z,-0.60
2019-01-11T17:11:43.870Z,-0.60
2019-01-11T17:14:14.550Z,-0.60
2019-01-11T17:16:45.363Z,-0.60
2019-01-11T17:19:16.226Z,-0.50
2019-01-11T17:21:48.302Z,-0.60
2019-01-11T17:24:19.107Z,-0.50
2019-01-11T17:26:49.736Z,-0.60
2019-01-11T17:29:21.095Z,-0.50
2019-01-11T17:31:51.914Z,-0.60
2019-01-11T17:34:23.916Z,-0.50
2019-01-11T17:36:54.773Z,-0.50
2019-01-11T17:39:25.901Z,-0.50
2019-01-11T17:41:58.183Z,-0.50
2019-01-11T17:44:30.929Z,-0.50
2019-01-11T17:47:02.814Z,-0.50
2019-01-11T17:49:35.177Z,-0.50
2019-01-11T17:52:07.674Z,-0.50
2019-01-11T17:54:38.785Z,-0.50
2019-01-11T17:57:10.165Z,-0.40
2019-01-11T17:59:41.220Z,-0.40
2019-01-11T18:02:12.384Z,-0.40
2019-01-11T18:04:43.617Z,-0.30
2019-01-11T18:07:14.739Z,-0.30
2019-01-11T18:09:45.934Z,-0.20
2019-01-11T18:12:20.107Z,-0.10
2019-01-11T18:14:51.411Z,-0.20
2019-01-11T18:17:22.371Z,-0.20
2019-01-11T18:19:58.572Z,-0.10
2019-01-11T18:22:29.133Z,-0.10
2019-01-11T18:24:59.983Z,-0.10
2019-01-11T18:27:31.110Z,0.00
2019-01-11T18:30:05.557Z,0.00
2019-01-11T18:32:36.953Z,0.10
2019-01-11T18:35:07.941Z,0.20
2019-01-11T18:37:38.893Z,0.20
2019-01-11T18:40:13.902Z,0.20
2019-01-11T18:42:45.314Z,0.20
2019-01-11T18:45:17.194Z,0.30
2019-01-11T18:47:48.440Z,0.30
2019-01-11T18:50:21.599Z,0.30
2019-01-11T18:52:53.866Z,0.30
2019-01-11T18:55:25.644Z,0.30
2019-01-11T18:57:58.432Z,0.30
2019-01-11T19:00:30.369Z,0.30
2019-01-11T19:03:01.701Z,0.40
2019-01-11T19:05:34.771Z,0.40
2019-01-11T19:08:07.314Z,0.40
2019-01-11T19:10:38.892Z,0.30
2019-01-11T19:13:11.855Z,0.40
2019-01-11T19:15:44.442Z,0.40
2019-01-11T19:18:15.507Z,0.40
2019-01-11T19:20:47.825Z,0.40
2019-01-11T19:23:20.629Z,0.40
2019-01-11T19:25:51.909Z,0.40
2019-01-11T19:28:23.901Z,0.50
2019-01-11T19:30:55.460Z,0.50
2019-01-11T19:33:26.778Z,0.60
2019-01-11T19:35:58.314Z,0.60
2019-01-11T19:38:29.738Z,0.60
2019-01-11T19:41:03.074Z,0.60
2019-01-11T19:43:34.855Z,0.70
2019-01-11T19:46:06.478Z,0.70
2019-01-11T19:48:38.329Z,0.70
2019-01-11T19:51:15.368Z,0.80
2019-01-11T19:53:47.717Z,0.80
2019-01-11T19:56:18.803Z,0.80
2019-01-11T19:58:50.499Z,0.80
2019-01-11T20:01:21.797Z,0.90
2019-01-11T20:03:53.519Z,0.80
2019-01-11T20:06:25.013Z,0.90
2019-01-11T20:08:56.205Z,0.90
2019-01-11T20:11:27.249Z,0.90
2019-01-11T20:13:58.458Z,1.00
2019-01-11T20:16:30.566Z,1.00
2019-01-11T20:19:02.360Z,1.00
2019-01-11T20:21:33.593Z,1.10
2019-01-11T20:24:06.207Z,1.10
2019-01-11T20:26:37.841Z,1.20
2019-01-11T20:29:09.253Z,1.30
2019-01-11T20:31:41.013Z,1.30
2019-01-11T20:34:11.977Z,1.40
2019-01-11T20:36:55.935Z,1.50
2019-01-11T20:39:28.697Z,1.50
2019-01-11T20:42:00.926Z,1.50
2019-01-11T20:44:31.910Z,1.50
2019-01-11T20:47:04.016Z,1.50
2019-01-11T20:49:35.439Z,1.60
2019-01-11T20:52:07.126Z,1.60
2019-01-11T20:54:37.917Z,1.70
2019-01-11T20:57:08.700Z,1.70
2019-01-11T20:59:39.458Z,1.80
2019-01-11T21:02:11.170Z,1.80
2019-01-11T21:04:43.793Z,1.80
2019-01-11T21:07:15.660Z,1.90
2019-01-11T21:09:48.439Z,1.90
2019-01-11T21:12:21.335Z,1.90
2019-01-11T21:14:52.892Z,1.90
2019-01-11T21:17:27.055Z,1.90
2019-01-11T21:19:58.401Z,2.00
2019-01-11T21:22:30.569Z,1.90
2019-01-11T21:25:02.502Z,1.90
2019-01-11T21:27:33.367Z,1.90
2019-01-11T21:30:06.469Z,1.90
2019-01-11T21:32:37.729Z,1.90
2019-01-11T21:35:09.590Z,1.90
2019-01-11T21:37:40.471Z,1.90
2019-01-11T21:40:12.977Z,1.90
2019-01-11T21:42:43.654Z,1.90
2019-01-11T21:45:15.658Z,2.00
2019-01-11T21:47:46.380Z,2.00
2019-01-11T21:50:22.819Z,2.00
2019-01-11T21:52:54.214Z,2.00
2019-01-11T21:55:25.234Z,2.00
2019-01-11T21:57:55.883Z,2.00
2019-01-11T22:00:42.000Z,2.00
2019-01-11T22:03:23.055Z,2.00
2019-01-11T22:05:53.807Z,2.00
2019-01-11T22:08:25.251Z,2.00
2019-01-11T22:10:56.011Z,2.00
2019-01-11T22:13:26.941Z,2.00
2019-01-11T22:15:57.339Z,2.00
2019-01-11T22:18:29.271Z,2.10
2019-01-11T22:20:59.871Z,2.10
2019-01-11T22:23:30.978Z,2.10
2019-01-11T22:26:01.509Z,2.00
2019-01-11T22:28:31.860Z,2.10
2019-01-11T22:31:02.863Z,2.10
2019-01-11T22:33:33.799Z,2.10
2019-01-11T22:36:04.858Z,2.10
2019-01-11T22:38:35.647Z,2.10
2019-01-11T22:41:06.282Z,2.10
2019-01-11T22:43:37.815Z,2.10
2019-01-11T22:46:08.135Z,2.20
2019-01-11T22:48:39.014Z,2.30
2019-01-11T22:51:09.671Z,2.30
2019-01-11T22:53:40.037Z,2.30
2019-01-11T22:56:10.464Z,2.30
2019-01-11T22:58:42.052Z,2.30
2019-01-11T23:01:37.670Z,2.30
2019-01-11T23:04:08.110Z,2.30
2019-01-11T23:07:02.209Z,2.40
2019-01-11T23:09:41.508Z,2.40
2019-01-11T23:12:57.987Z,2.40
2019-01-11T23:15:34.467Z,2.40
2019-01-11T23:18:11.150Z,2.40
2019-01-11T23:20:41.828Z,2.40
2019-01-11T23:23:13.070Z,2.40
2019-01-11T23:25:43.421Z,2.40
2019-01-11T23:28:14.537Z,2.50
2019-01-11T23:30:45.237Z,2.40
2019-01-11T23:33:16.106Z,2.50
2019-01-11T23:35:47.320Z,2.50
2019-01-11T23:38:17.907Z,2.50
2019-01-11T23:40:49.771Z,2.50
2019-01-11T23:43:20.456Z,2.50
2019-01-11T23:45:51.194Z,2.50
2019-01-11T23:48:21.826Z,2.50
2019-01-11T23:50:52.598Z,2.60
2019-01-11T23:53:22.800Z,2.60
2019-01-11T23:55:53.618Z,2.60
2019-01-11T23:58:24.222Z,2.60
